createdAt,value
2018-07-02T00:02:00.727Z,1.90
2018-07-02T00:04:27.655Z,1.20
2018-07-02T00:07:06.037Z,1.30
2018-07-02T00:09:32.898Z,0.90
2018-07-02T00:11:59.934Z,1.43
2018-07-02T00:14:26.783Z,0.90
2018-07-02T00:16:53.648Z,1.00
2018-07-02T00:19:20.658Z,1.07
2018-07-02T00:21:47.586Z,0.80
2018-07-02T00:24:14.606Z,1.20
2018-07-02T00:26:41.471Z,1.17
2018-07-02T00:29:08.323Z,1.00
2018-07-02T00:31:35.199Z,1.00
2018-07-02T00:34:03.079Z,0.90
2018-07-02T00:36:29.972Z,1.57
2018-07-02T00:38:56.835Z,0.90
2018-07-02T00:41:23.680Z,1.10
2018-07-02T00:43:50.535Z,0.90
2018-07-02T00:46:17.419Z,1.30
2018-07-02T00:48:44.290Z,0.90
2018-07-02T00:51:11.135Z,1.30
2018-07-02T00:53:37.999Z,1.20
2018-07-02T00:56:05.026Z,0.80
2018-07-02T00:58:31.906Z,0.90
2018-07-02T01:00:58.758Z,1.10
2018-07-02T01:03:25.627Z,1.30
2018-07-02T01:05:52.487Z,0.90
2018-07-02T01:08:19.347Z,1.10
2018-07-02T01:10:46.515Z,1.37
2018-07-02T01:13:13.368Z,1.00
2018-07-02T01:15:40.224Z,1.00
2018-07-02T01:18:07.083Z,1.00
2018-07-02T01:20:36.003Z,1.03
2018-07-02T01:23:02.867Z,1.03
2018-07-02T01:25:29.718Z,0.90
2018-07-02T01:27:56.562Z,0.90
2018-07-02T01:30:23.430Z,0.93
2018-07-02T01:32:50.300Z,0.90
2018-07-02T01:35:17.158Z,1.00
2018-07-02T01:37:44.014Z,1.10
2018-07-02T01:40:10.902Z,1.00
2018-07-02T01:42:37.760Z,1.10
2018-07-02T01:45:04.711Z,1.10
2018-07-02T01:47:31.583Z,1.20
2018-07-02T01:49:58.450Z,1.00
2018-07-02T01:52:25.306Z,1.03
2018-07-02T01:54:52.155Z,1.03
2018-07-02T01:57:19.015Z,1.23
2018-07-02T01:59:45.869Z,1.00
2018-07-02T02:02:12.798Z,1.40
2018-07-02T02:04:39.658Z,1.20
2018-07-02T02:07:06.527Z,1.07
2018-07-02T02:09:33.387Z,0.97
2018-07-02T02:12:00.246Z,1.10
2018-07-02T02:14:27.131Z,1.00
2018-07-02T02:16:53.995Z,1.20
2018-07-02T02:19:20.863Z,1.10
2018-07-02T02:21:47.722Z,1.30
2018-07-02T02:24:14.576Z,1.30
2018-07-02T02:26:41.427Z,1.20
2018-07-02T02:29:08.279Z,0.90
2018-07-02T02:31:35.155Z,0.90
2018-07-02T02:34:02.011Z,1.10
2018-07-02T02:36:28.866Z,1.00
2018-07-02T02:38:55.829Z,1.07
2018-07-02T02:41:22.691Z,1.30
2018-07-02T02:43:49.551Z,1.23
2018-07-02T02:46:16.439Z,1.10
2018-07-02T02:48:43.295Z,1.10
2018-07-02T02:51:12.223Z,1.27
2018-07-02T02:53:39.081Z,1.00
2018-07-02T02:56:05.947Z,1.10
2018-07-02T02:58:32.810Z,0.80
2018-07-02T03:00:59.659Z,1.27
2018-07-02T03:03:26.527Z,1.00
2018-07-02T03:05:53.379Z,1.00
2018-07-02T03:08:20.240Z,1.03
2018-07-02T03:10:47.115Z,0.90
2018-07-02T03:13:13.976Z,1.10
2018-07-02T03:15:40.835Z,1.10
2018-07-02T03:18:07.728Z,1.10
2018-07-02T03:20:34.600Z,1.10
2018-07-02T03:23:01.455Z,0.90
2018-07-02T03:25:28.299Z,1.00
2018-07-02T03:27:55.155Z,1.00
2018-07-02T03:30:22.016Z,1.10
2018-07-02T03:32:48.875Z,1.00
2018-07-02T03:35:15.751Z,1.27
2018-07-02T03:37:42.656Z,1.10
2018-07-02T03:40:09.531Z,1.00
2018-07-02T03:42:36.396Z,1.03
2018-07-02T03:45:03.247Z,1.00
2018-07-02T03:47:30.106Z,0.97
2018-07-02T03:49:56.978Z,1.20
2018-07-02T03:52:23.843Z,1.00
2018-07-02T03:54:50.691Z,1.20
2018-07-02T03:57:17.555Z,1.00
2018-07-02T03:59:44.416Z,1.00
2018-07-02T04:02:11.315Z,1.17
2018-07-02T04:04:38.221Z,1.00
2018-07-02T04:07:05.084Z,1.23
2018-07-02T04:09:31.946Z,0.90
2018-07-02T04:11:58.898Z,1.00
2018-07-02T04:14:25.778Z,1.50
2018-07-02T04:16:52.591Z,1.00
2018-07-02T04:19:19.557Z,0.90
2018-07-02T04:21:47.227Z,1.20
2018-07-02T04:24:14.174Z,0.80
2018-07-02T04:26:41.730Z,0.90
2018-07-02T04:29:08.761Z,0.80
2018-07-02T04:31:36.696Z,1.00
2018-07-02T04:34:03.814Z,0.80
2018-07-02T04:36:30.819Z,1.00
2018-07-02T04:38:57.711Z,0.90
2018-07-02T04:41:24.712Z,0.83
2018-07-02T04:43:51.756Z,1.40
2018-07-02T04:46:18.643Z,1.03
2018-07-02T04:48:45.515Z,0.90
2018-07-02T04:51:12.424Z,1.20
2018-07-02T04:53:39.404Z,0.90
2018-07-02T04:56:06.295Z,0.90
2018-07-02T04:58:33.171Z,0.90
2018-07-02T05:01:00.055Z,1.13
2018-07-02T05:03:26.914Z,0.90
2018-07-02T05:05:53.790Z,0.90
2018-07-02T05:08:20.676Z,1.10
2018-07-02T05:10:47.547Z,1.30
2018-07-02T05:13:14.427Z,1.00
2018-07-02T05:15:41.322Z,1.00
2018-07-02T05:18:08.191Z,0.97
2018-07-02T05:20:35.092Z,1.23
2018-07-02T05:23:02.002Z,1.03
2018-07-02T05:25:28.876Z,0.90
2018-07-02T05:27:55.747Z,1.00
2018-07-02T05:30:22.635Z,1.20
2018-07-02T05:32:49.511Z,0.80
2018-07-02T05:35:16.393Z,0.97
2018-07-02T05:37:43.272Z,1.03
2018-07-02T05:40:10.281Z,0.97
2018-07-02T05:42:37.047Z,0.83
2018-07-02T05:45:03.927Z,0.90
2018-07-02T05:47:30.803Z,0.83
2018-07-02T05:49:57.678Z,1.03
2018-07-02T05:52:24.563Z,0.90
2018-07-02T05:54:51.441Z,1.10
2018-07-02T05:57:18.311Z,0.97
2018-07-02T05:59:45.192Z,0.97
2018-07-02T06:02:12.067Z,0.90
2018-07-02T06:04:38.955Z,0.90
2018-07-02T06:07:05.852Z,0.90
2018-07-02T06:09:32.731Z,0.90
2018-07-02T06:12:01.596Z,1.20
2018-07-02T06:14:28.478Z,1.00
2018-07-02T06:16:55.359Z,0.90
2018-07-02T06:19:22.243Z,0.80
2018-07-02T06:21:49.098Z,1.13
2018-07-02T06:24:15.958Z,0.83
2018-07-02T06:26:42.812Z,0.90
2018-07-02T06:29:09.665Z,0.90
2018-07-02T06:31:36.527Z,1.03
2018-07-02T06:34:03.387Z,1.00
2018-07-02T06:36:30.244Z,0.83
2018-07-02T06:38:57.115Z,1.17
2018-07-02T06:41:23.958Z,1.10
2018-07-02T06:43:50.898Z,0.90
2018-07-02T06:46:17.748Z,1.00
2018-07-02T06:48:44.615Z,1.10
2018-07-02T06:51:11.495Z,1.13
2018-07-02T06:53:38.355Z,1.10
2018-07-02T06:56:05.226Z,1.00
2018-07-02T06:58:32.843Z,1.47
2018-07-02T07:00:59.675Z,1.13
2018-07-02T07:03:26.548Z,1.20
2018-07-02T07:05:53.416Z,1.00
2018-07-02T07:08:20.279Z,0.90
2018-07-02T07:10:47.131Z,1.10
2018-07-02T07:13:14.027Z,1.07
2018-07-02T07:15:40.953Z,1.00
2018-07-02T07:18:07.750Z,1.00
2018-07-02T07:20:34.691Z,1.00
2018-07-02T07:23:01.636Z,1.00
2018-07-02T07:25:28.487Z,1.00
2018-07-02T07:27:55.339Z,1.50
2018-07-02T07:30:22.195Z,1.07
2018-07-02T07:32:49.052Z,1.00
2018-07-02T07:35:15.911Z,0.80
2018-07-02T07:37:42.772Z,0.80
2018-07-02T07:40:09.614Z,1.00
2018-07-02T07:42:36.463Z,1.20
2018-07-02T07:45:03.469Z,0.90
2018-07-02T07:47:30.420Z,1.27
2018-07-02T07:49:57.287Z,1.57
2018-07-02T07:52:24.139Z,0.97
2018-07-02T07:54:51.095Z,1.10
2018-07-02T07:57:17.966Z,1.00
2018-07-02T07:59:44.875Z,1.07
2018-07-02T08:02:11.743Z,1.17
2018-07-02T08:04:38.607Z,0.80
2018-07-02T08:07:05.561Z,0.80
2018-07-02T08:09:32.419Z,0.90
2018-07-02T08:11:59.292Z,1.00
2018-07-02T08:14:26.183Z,1.00
2018-07-02T08:16:53.051Z,1.07
2018-07-02T08:19:19.921Z,1.10
2018-07-02T08:21:47.235Z,0.90
2018-07-02T08:24:14.091Z,1.17
2018-07-02T08:26:40.939Z,0.80
2018-07-02T08:29:07.799Z,1.10
2018-07-02T08:31:34.657Z,0.90
2018-07-02T08:34:01.528Z,0.90
2018-07-02T08:36:28.412Z,0.90
2018-07-02T08:38:55.283Z,0.90
2018-07-02T08:41:22.153Z,0.90
2018-07-02T08:43:49.052Z,1.00
2018-07-02T08:46:15.927Z,0.90
2018-07-02T08:48:42.791Z,1.00
2018-07-02T08:51:09.647Z,1.23
2018-07-02T08:53:36.507Z,0.83
2018-07-02T08:56:03.380Z,0.80
2018-07-02T08:58:30.244Z,1.20
2018-07-02T09:00:57.104Z,0.90
2018-07-02T09:03:24.005Z,1.00
2018-07-02T09:05:50.867Z,0.90
2018-07-02T09:08:17.731Z,0.87
2018-07-02T09:10:44.607Z,1.03
2018-07-02T09:13:11.491Z,0.90
2018-07-02T09:15:38.352Z,1.00
2018-07-02T09:18:05.219Z,1.00
2018-07-02T09:20:32.088Z,0.90
2018-07-02T09:22:58.964Z,1.00
2018-07-02T09:25:25.816Z,1.10
2018-07-02T09:27:52.708Z,1.07
2018-07-02T09:30:19.568Z,1.33
2018-07-02T09:32:46.430Z,0.80
2018-07-02T09:35:13.315Z,0.87
2018-07-02T09:37:40.300Z,1.20
2018-07-02T09:40:07.191Z,1.20
2018-07-02T09:42:34.059Z,0.90
2018-07-02T09:45:00.920Z,1.00
2018-07-02T09:47:27.823Z,0.80
2018-07-02T09:49:54.691Z,0.90
2018-07-02T09:52:21.553Z,1.00
2018-07-02T09:54:48.420Z,1.00
2018-07-02T09:57:15.284Z,0.90
2018-07-02T10:11:09.871Z,1.40
2018-07-02T10:13:36.789Z,1.20
2018-07-02T10:16:03.673Z,1.10
2018-07-02T10:21:05.347Z,0.90
2018-07-02T10:23:37.331Z,1.07
2018-07-02T10:26:00.941Z,1.03
2018-07-02T10:28:27.753Z,1.10
2018-07-02T10:30:54.718Z,0.93
2018-07-02T10:33:21.518Z,1.00
2018-07-02T10:35:48.398Z,1.10
2018-07-02T10:38:15.279Z,1.07
2018-07-02T10:40:42.235Z,1.20
2018-07-02T10:43:09.123Z,0.97
2018-07-02T10:45:36.051Z,1.20
2018-07-02T10:48:02.973Z,1.00
2018-07-02T10:50:29.857Z,1.10
2018-07-02T10:52:56.833Z,1.10
2018-07-02T10:55:23.692Z,0.83
2018-07-02T10:57:50.608Z,1.20
2018-07-02T11:00:17.471Z,0.90
2018-07-02T11:02:44.340Z,0.97
2018-07-02T11:05:11.204Z,1.50
2018-07-02T11:07:38.104Z,0.90
2018-07-02T11:10:05.056Z,1.50
2018-07-02T11:12:31.951Z,0.90
2018-07-02T11:14:59.299Z,1.10
2018-07-02T11:17:26.156Z,1.23
2018-07-02T11:19:53.039Z,1.00
2018-07-02T11:22:19.911Z,0.90
2018-07-02T11:24:46.792Z,0.93
2018-07-02T11:27:13.661Z,1.20
2018-07-02T11:29:40.569Z,0.80
2018-07-02T11:32:07.428Z,1.03
2018-07-02T11:34:34.397Z,1.20
2018-07-02T11:37:01.340Z,1.20
2018-07-02T11:39:28.239Z,0.80
2018-07-02T11:41:55.128Z,0.90
2018-07-02T11:44:22.005Z,0.80
2018-07-02T11:46:48.888Z,0.80
2018-07-02T11:49:15.787Z,1.07
2018-07-02T11:51:42.728Z,0.70
2018-07-02T11:54:09.591Z,1.10
2018-07-02T11:56:36.472Z,1.20
2018-07-02T11:59:03.398Z,0.97
2018-07-02T12:01:30.344Z,1.00
2018-07-02T12:03:57.210Z,1.13
2018-07-02T12:06:24.148Z,0.90
2018-07-02T12:08:51.031Z,1.00
2018-07-02T12:11:17.915Z,0.80
2018-07-02T12:13:44.800Z,0.90
2018-07-02T12:16:11.706Z,1.00
2018-07-02T12:18:38.579Z,0.80
2018-07-02T12:21:05.591Z,0.90
2018-07-02T12:23:32.472Z,1.00
2018-07-02T12:26:02.603Z,1.00
2018-07-02T12:28:29.537Z,1.10
2018-07-02T12:30:57.213Z,1.00
2018-07-02T12:33:24.201Z,1.03
2018-07-02T12:35:51.131Z,1.00
2018-07-02T12:38:18.016Z,1.17
2018-07-02T12:40:44.880Z,0.93
2018-07-02T12:43:11.892Z,1.03
2018-07-02T12:45:38.777Z,0.90
2018-07-02T12:48:05.661Z,0.87
2018-07-02T12:50:32.696Z,1.10
2018-07-02T12:52:59.583Z,0.90
2018-07-02T12:55:26.508Z,1.00
2018-07-02T12:57:53.379Z,1.00
2018-07-02T13:00:20.269Z,0.70
2018-07-02T13:02:47.136Z,1.10
2018-07-02T13:05:14.028Z,0.90
2018-07-02T13:07:40.907Z,0.93
2018-07-02T13:10:07.876Z,1.10
2018-07-02T13:12:34.832Z,0.80
2018-07-02T13:15:01.696Z,0.87
2018-07-02T13:17:28.599Z,0.90
2018-07-02T13:19:55.567Z,0.70
2018-07-02T13:22:22.467Z,0.90
2018-07-02T13:24:49.822Z,0.90
2018-07-02T13:27:16.701Z,0.70
2018-07-02T13:29:43.578Z,0.98
2018-07-02T13:32:11.749Z,0.80
2018-07-02T13:34:38.650Z,1.00
2018-07-02T13:37:06.711Z,1.00
2018-07-02T13:39:33.827Z,0.83
2018-07-02T13:42:00.740Z,0.80
2018-07-02T13:44:27.621Z,0.90
2018-07-02T13:46:54.523Z,0.83
2018-07-02T13:49:21.379Z,0.80
2018-07-02T13:51:48.294Z,0.87
2018-07-02T13:54:15.151Z,0.87
2018-07-02T13:56:42.057Z,0.90
2018-07-02T13:59:08.980Z,0.90
2018-07-02T14:01:35.870Z,0.87
2018-07-02T14:04:02.748Z,0.80
2018-07-02T14:06:29.656Z,0.90
2018-07-02T14:08:56.519Z,0.70
2018-07-02T14:11:23.397Z,1.17
2018-07-02T14:13:50.278Z,0.80
2018-07-02T14:16:17.578Z,0.80
2018-07-02T14:18:44.550Z,0.60
2018-07-02T14:21:11.453Z,0.70
2018-07-02T14:23:38.372Z,0.63
2018-07-02T14:26:05.383Z,0.70
2018-07-02T14:28:32.263Z,0.80
2018-07-02T14:30:59.159Z,0.70
2018-07-02T14:33:26.048Z,1.90
2018-07-02T14:35:53.012Z,0.90
2018-07-02T14:38:19.939Z,0.70
2018-07-02T14:40:46.816Z,0.70
2018-07-02T14:43:13.777Z,0.70
2018-07-02T14:45:40.671Z,0.80
2018-07-02T14:48:07.551Z,0.90
2018-07-02T14:50:34.461Z,0.80
2018-07-02T14:53:01.343Z,0.70
2018-07-02T14:55:28.196Z,0.80
2018-07-02T14:57:55.109Z,0.90
2018-07-02T15:00:21.980Z,0.90
2018-07-02T15:02:49.951Z,0.93
2018-07-02T15:05:16.830Z,0.90
2018-07-02T15:07:44.207Z,0.80
2018-07-02T15:10:11.076Z,1.07
2018-07-02T15:12:37.956Z,0.83
2018-07-02T15:15:04.989Z,0.93
2018-07-02T15:17:31.964Z,1.03
2018-07-02T15:19:58.912Z,0.80
2018-07-02T15:22:25.792Z,0.73
2018-07-02T15:24:52.695Z,0.60
2018-07-02T15:27:20.567Z,0.73
2018-07-02T15:29:47.525Z,0.80
2018-07-02T15:32:14.492Z,0.77
2018-07-02T15:34:41.449Z,0.80
2018-07-02T15:37:08.320Z,0.77
2018-07-02T15:39:35.261Z,0.67
2018-07-02T15:42:02.082Z,0.70
2018-07-02T15:44:28.975Z,0.80
2018-07-02T15:46:55.858Z,0.80
2018-07-02T15:49:22.713Z,0.83
2018-07-02T15:51:49.615Z,0.67
2018-07-02T15:54:16.609Z,0.90
2018-07-02T15:56:43.336Z,0.80
2018-07-02T15:59:10.199Z,0.70
2018-07-02T16:01:37.059Z,0.70
2018-07-02T16:04:03.991Z,0.80
2018-07-02T16:06:30.845Z,0.82
2018-07-02T16:08:57.719Z,1.23
2018-07-02T16:11:24.604Z,0.67
2018-07-02T16:13:51.543Z,0.80
2018-07-02T16:16:18.511Z,0.80
2018-07-02T16:18:45.397Z,1.00
2018-07-02T16:21:12.296Z,0.70
2018-07-02T16:23:39.162Z,1.00
2018-07-02T16:26:06.054Z,0.80
2018-07-02T16:28:32.986Z,0.80
2018-07-02T16:30:59.859Z,0.90
2018-07-02T16:33:26.719Z,1.17
2018-07-02T16:35:53.627Z,0.70
2018-07-02T16:38:20.843Z,0.70
2018-07-02T16:40:47.727Z,0.90
2018-07-02T16:43:14.600Z,0.70
2018-07-02T16:45:41.524Z,0.80
2018-07-02T16:48:08.431Z,0.70
2018-07-02T16:50:35.397Z,0.80
2018-07-02T16:53:02.464Z,0.90
2018-07-02T16:55:29.403Z,0.77
2018-07-02T16:57:56.316Z,0.80
2018-07-02T17:00:23.227Z,0.80
2018-07-02T17:02:50.164Z,0.93
2018-07-02T17:05:17.032Z,0.80
2018-07-02T17:07:43.975Z,0.90
2018-07-02T17:10:10.840Z,1.00
2018-07-02T17:12:37.748Z,0.80
2018-07-02T17:15:05.043Z,0.80
2018-07-02T17:17:31.938Z,0.87
2018-07-02T17:19:58.808Z,0.80
2018-07-02T17:22:25.752Z,0.70
2018-07-02T17:24:52.663Z,0.70
2018-07-02T17:27:19.560Z,0.80
2018-07-02T17:29:46.508Z,0.83
2018-07-02T17:32:13.428Z,0.60
2018-07-02T17:34:40.380Z,0.80
2018-07-02T17:37:07.258Z,0.80
2018-07-02T17:39:34.188Z,0.70
2018-07-02T17:42:01.100Z,0.90
2018-07-02T17:44:27.939Z,0.73
2018-07-02T17:46:54.924Z,0.90
2018-07-02T17:49:21.790Z,0.70
2018-07-02T17:51:48.667Z,0.53
2018-07-02T17:54:15.543Z,0.70
2018-07-02T17:56:42.444Z,0.70
2018-07-02T17:59:09.359Z,0.67
2018-07-02T18:01:36.198Z,0.70
2018-07-02T18:04:03.086Z,0.70
2018-07-02T18:06:29.968Z,1.20
2018-07-02T18:08:56.888Z,1.10
2018-07-02T18:11:23.748Z,0.80
2018-07-02T18:13:50.630Z,0.70
2018-07-02T18:16:17.970Z,0.77
2018-07-02T18:18:47.850Z,0.80
2018-07-02T18:21:14.715Z,0.90
2018-07-02T18:23:41.675Z,0.80
2018-07-02T18:26:08.562Z,0.80
2018-07-02T18:28:35.594Z,0.80
2018-07-02T18:31:02.468Z,0.80
2018-07-02T18:33:29.338Z,0.60
2018-07-02T18:35:56.267Z,0.90
2018-07-02T18:38:23.160Z,0.80
2018-07-02T18:40:50.208Z,0.70
2018-07-02T18:43:17.172Z,1.07
2018-07-02T18:45:44.056Z,0.93
2018-07-02T18:48:10.939Z,1.00
2018-07-02T18:50:37.820Z,1.00
2018-07-02T18:53:04.701Z,0.90
2018-07-02T18:55:31.574Z,1.10
2018-07-02T18:57:58.443Z,1.10
2018-07-02T19:00:25.318Z,1.30
2018-07-02T19:02:52.206Z,1.23
2018-07-02T19:05:19.086Z,1.10
2018-07-02T19:07:46.015Z,1.23
2018-07-02T19:10:13.030Z,1.23
2018-07-02T19:12:39.964Z,1.47
2018-07-02T19:15:07.155Z,1.00
2018-07-02T19:17:34.880Z,1.07
2018-07-02T19:20:01.796Z,1.07
2018-07-02T19:22:28.659Z,1.17
2018-07-02T19:24:55.527Z,1.30
2018-07-02T19:27:22.387Z,1.27
2018-07-02T19:29:49.352Z,1.40
2018-07-02T19:32:16.446Z,1.30
2018-07-02T19:34:43.617Z,1.43
2018-07-02T19:37:10.556Z,1.50
2018-07-02T19:39:37.511Z,1.23
2018-07-02T19:42:04.420Z,1.17
2018-07-02T19:44:31.344Z,1.20
2018-07-02T19:46:58.211Z,1.10
2018-07-02T19:49:25.129Z,1.10
2018-07-02T19:51:52.663Z,1.60
2018-07-02T19:54:20.101Z,2.27
2018-07-02T19:56:46.987Z,2.00
2018-07-02T19:59:13.851Z,2.73
2018-07-02T20:01:40.751Z,2.40
2018-07-02T20:04:07.666Z,2.50
2018-07-02T20:06:34.604Z,2.30
2018-07-02T20:09:03.372Z,2.07
2018-07-02T20:11:30.239Z,1.60
2018-07-02T20:13:57.219Z,2.07
2018-07-02T20:16:24.175Z,1.40
2018-07-02T20:18:51.053Z,1.70
2018-07-02T20:21:17.919Z,1.40
2018-07-02T20:23:44.959Z,1.17
2018-07-02T20:26:12.152Z,1.10
2018-07-02T20:28:39.116Z,1.27
2018-07-02T20:31:06.706Z,1.43
2018-07-02T20:33:35.571Z,1.10
2018-07-02T20:36:06.267Z,1.10
2018-07-02T20:38:33.177Z,1.77
2018-07-02T20:41:00.108Z,1.10
2018-07-02T20:43:27.005Z,1.07
2018-07-02T20:45:53.920Z,1.20
2018-07-02T20:48:20.981Z,1.00
2018-07-02T20:50:47.896Z,1.00
2018-07-02T20:53:14.763Z,1.40
2018-07-02T20:55:41.669Z,1.10
2018-07-02T20:58:09.471Z,1.03
2018-07-02T21:00:36.332Z,1.20
2018-07-02T21:03:03.260Z,1.00
2018-07-02T21:05:30.483Z,1.20
2018-07-02T21:07:57.607Z,1.13
2018-07-02T21:10:24.574Z,1.10
2018-07-02T21:12:51.383Z,1.20
2018-07-02T21:15:18.247Z,2.00
2018-07-02T21:17:45.117Z,1.20
2018-07-02T21:20:11.994Z,1.00
2018-07-02T21:22:38.883Z,1.00
2018-07-02T21:25:05.811Z,1.30
2018-07-02T21:27:32.667Z,1.13
2018-07-02T21:30:02.418Z,1.07
2018-07-02T21:32:29.290Z,1.00
2018-07-02T21:34:56.219Z,1.20
2018-07-02T21:37:23.083Z,1.23
2018-07-02T21:39:49.941Z,1.20
2018-07-02T21:42:16.998Z,1.20
2018-07-02T21:44:43.724Z,1.20
2018-07-02T21:47:10.596Z,1.60
2018-07-02T21:49:37.466Z,1.30
2018-07-02T21:52:04.323Z,1.53
2018-07-02T21:54:31.259Z,1.73
2018-07-02T21:56:58.111Z,1.20
2018-07-02T21:59:25.819Z,1.33
2018-07-02T22:01:52.729Z,1.33
2018-07-02T22:04:19.639Z,1.13
2018-07-02T22:06:46.835Z,1.20
2018-07-02T22:09:16.768Z,1.03
2018-07-02T22:11:43.625Z,1.33
2018-07-02T22:14:10.488Z,1.43
2018-07-02T22:16:37.367Z,1.03
2018-07-02T22:19:06.548Z,1.33
2018-07-02T22:21:33.488Z,1.20
2018-07-02T22:24:00.348Z,1.20
2018-07-02T22:26:31.279Z,1.10
2018-07-02T22:28:58.504Z,1.30
2018-07-02T22:31:27.384Z,1.40
2018-07-02T22:33:54.259Z,1.20
2018-07-02T22:36:21.141Z,1.30
2018-07-02T22:38:48.027Z,1.40
2018-07-02T22:41:14.963Z,1.30
2018-07-02T22:43:41.871Z,1.10
2018-07-02T22:46:08.707Z,1.10
2018-07-02T22:48:35.576Z,1.50
2018-07-02T22:51:02.427Z,1.65
2018-07-02T22:53:29.308Z,1.47
2018-07-02T22:55:58.482Z,1.80
2018-07-02T22:58:25.367Z,1.22
2018-07-02T23:00:52.340Z,1.30
2018-07-02T23:03:19.151Z,1.20
2018-07-02T23:05:46.035Z,1.62
2018-07-02T23:08:12.976Z,1.43
2018-07-02T23:10:39.861Z,1.37
2018-07-02T23:13:06.731Z,1.40
2018-07-02T23:15:33.619Z,1.30
2018-07-02T23:18:00.527Z,1.80
2018-07-02T23:20:27.459Z,1.40
2018-07-02T23:22:59.750Z,1.70
2018-07-02T23:25:27.436Z,1.90
2018-07-02T23:27:55.125Z,1.80
2018-07-02T23:30:22.035Z,1.20
2018-07-02T23:32:49.267Z,2.17
2018-07-02T23:35:16.879Z,1.90
2018-07-02T23:37:43.751Z,1.53
2018-07-02T23:40:10.656Z,1.57
2018-07-02T23:42:37.516Z,1.50
2018-07-02T23:45:04.379Z,1.67
2018-07-02T23:47:31.253Z,2.27
2018-07-02T23:49:58.119Z,2.17
2018-07-02T23:52:25.072Z,1.83
2018-07-02T23:54:51.965Z,1.43
2018-07-02T23:57:18.835Z,1.37
2018-07-02T23:59:45.699Z,1.57
